Altinopolis, Brazil
Current Conditions -  °F | °C
As of 5:00 PM on Monday 20 Oct 2014 (Local Time) from SBRP Reporting Station
Few Clouds Few Clouds  
Wind Chill: 86°   Ceiling: Unl
Heat Index: 86°   Visibility: 6mi
Dew Point: 57°   Wind: 9mph
Humidity: 37%   Direction: 190°S
Pressure: 29.91"   Gusts: NA
Location:  21.03°S, 47.37°W
Report Text: SBRP 202000Z 19008KT 9999 FEW045 30/14 Q1013
Loading
Personal Weather Stations






























Interactive Weather Map
Tropical Storm Tracking
New forecast layout! Learn more

10-Day Weather Forecast

Advertisements
Track Severe Weather on mobile